Flight Track Log - Related Links

Times and Time Zones

All times are in EDT time to prevent confusion due to time zone crossing. See the C-FXDD flight status page for this flight to view local times or setup timezone preferences in your user account.

Time Position Orientation Groundspeed Altitude Reporting Facility
EDT Latitude Longitude Course Direction KTS MPH feet Rate Location/Type
Mon 04:20:27 PM 50.4000 -104.7000 270° West 80 92 2,200  Level Winnipeg Center
Mon 04:21:27 PM 50.4000 -104.7167 270° West 100 115 3,200 650 Climbing Winnipeg Center
Mon 04:22:27 PM 50.3833 -104.6667 118° Southeast 140 161 3,500 600 Climbing Winnipeg Center
Mon 04:23:27 PM 50.4000 -104.6167 62° Northeast 140 161 4,400 850 Climbing Winnipeg Center
Mon 04:24:27 PM 50.4000 -104.5333 90° East 140 161 5,200 800 Climbing Winnipeg Center
Mon 04:25:27 PM 50.4000 -104.4833 90° East 140 161 6,000 800 Climbing Winnipeg Center
Mon 04:26:27 PM 50.3833 -104.4333 118° Southeast 140 161 6,800 850 Climbing Winnipeg Center
Mon 04:27:27 PM 50.4000 -104.3500 73° East 140 161 7,700 850 Climbing Winnipeg Center
Mon 04:28:27 PM 50.4000 -104.3000 90° East 140 161 8,500 750 Climbing Winnipeg Center
Mon 04:29:27 PM 50.3833 -104.2500 118° Southeast 140 161 9,200 700 Climbing Winnipeg Center
Mon 04:30:27 PM 50.3833 -104.1667 90° East 150 173 9,900 700 Climbing Winnipeg Center
Mon 04:31:27 PM 50.4000 -104.0833 73° East 160 184 10,600 600 Climbing Winnipeg Center
Mon 04:32:27 PM 50.4000 -104.0333 90° East 160 184 11,100 250 Climbing Winnipeg Center
Mon 04:33:27 PM 50.3833 -103.9500 107° East 190 219 11,100  Level Winnipeg Center
Mon 04:34:27 PM 50.4000 -103.8500 75° East 190 219 11,100  Level Winnipeg Center
Mon 04:35:27 PM 50.4000 -103.7667 90° East 190 219 11,100  Level Winnipeg Center
Mon 04:36:27 PM 50.3833 -103.6833 107° East 190 219 11,100  Level Winnipeg Center
Mon 04:37:27 PM 50.3833 -103.6167 90° East 190 219 11,100  Level Winnipeg Center
Mon 04:38:27 PM 50.4000 -103.5333 73° East 190 219 11,100  Level Winnipeg Center
Mon 04:39:27 PM 50.3833 -103.4500 107° East 190 219 11,100  Level Winnipeg Center
Mon 04:40:27 PM 50.3833 -103.3500 90° East 190 219 11,100  Level Winnipeg Center
Mon 04:41:27 PM 50.4000 -103.2667 73° East 190 219 11,100  Level Winnipeg Center
Mon 04:42:27 PM 50.4000 -103.2000 90° East 190 219 11,100  Level Winnipeg Center
Mon 04:43:27 PM 50.3833 -103.1167 107° East 190 219 11,100  Level Winnipeg Center
Mon 04:44:27 PM 50.3833 -103.0333 90° East 190 219 11,100  Level Winnipeg Center
Mon 04:45:27 PM 50.4000 -102.9500 73° East 190 219 11,100  Level Winnipeg Center
Mon 04:46:27 PM 50.3833 -102.8667 107° East 190 219 11,100  Level Winnipeg Center
Mon 04:47:27 PM 50.3833 -102.8000 90° East 190 219 11,100  Level Winnipeg Center
Mon 04:48:27 PM 50.3833 -102.7167 90° East 190 219 11,100  Level Winnipeg Center
Mon 04:49:27 PM 50.4000 -102.6167 75° East 190 219 11,100  Level Winnipeg Center
Mon 04:50:27 PM 50.3833 -102.5333 107° East 190 219 11,100  Level Winnipeg Center
Mon 04:51:27 PM 50.3833 -102.4500 90° East 190 219 11,100  Level Winnipeg Center
Mon 04:52:27 PM 50.3833 -102.3833 90° East 200 230 11,100  Level Winnipeg Center
Mon 04:53:27 PM 50.3833 -102.3000 90° East 190 219 11,100  Level Winnipeg Center
Mon 04:54:27 PM 50.3833 -102.1833 90° East 190 219 11,100  Level Winnipeg Center
Mon 04:55:27 PM 50.3833 -102.1167 90° East 190 219 11,100  Level Winnipeg Center
Mon 04:56:27 PM 50.3667 -102.0333 107° East 190 219 11,100  Level Winnipeg Center
Mon 04:57:27 PM 50.3667 -101.9500 90° East 200 230 11,100  Level Winnipeg Center
Mon 04:58:27 PM 50.3833 -101.8500 75° East 200 230 11,100  Level Winnipeg Center
Mon 04:59:27 PM 50.3833 -101.7667 90° East 190 219 11,100  Level Winnipeg Center
Mon 05:00:27 PM 50.3667 -101.6833 107° East 200 230 11,100  Level Winnipeg Center
Mon 05:01:27 PM 50.3667 -101.6167 90° East 200 230 11,100  Level Winnipeg Center
Mon 05:02:27 PM 50.3500 -101.5333 107° East 200 230 11,100  Level Winnipeg Center
Mon 05:03:27 PM 50.3667 -101.4333 75° East 200 230 11,100  Level Winnipeg Center
Mon 05:04:27 PM 50.3667 -101.3500 90° East 200 230 11,100  Level Winnipeg Center
Mon 05:05:27 PM 50.3500 -101.2667 107° East 200 230 11,100  Level Winnipeg Center
Mon 05:06:27 PM 50.3500 -101.1667 90° East 200 230 11,100  Level Winnipeg Center
Mon 05:07:27 PM 50.3500 -101.0833 90° East 200 230 11,100  Level Winnipeg Center
Mon 05:08:27 PM 50.3667 -101.0000 73° East 200 230 11,100  Level Winnipeg Center
Mon 05:09:27 PM 50.3500 -100.9000 105° East 200 230 11,100  Level Winnipeg Center
Mon 05:10:27 PM 50.3500 -100.8167 90° East 200 230 11,100  Level Winnipeg Center
Mon 05:11:27 PM 50.3500 -100.7500 90° East 200 230 11,100  Level Winnipeg Center
Mon 05:12:27 PM 50.3333 -100.6333 103° East 200 230 11,100  Level Winnipeg Center
Mon 05:13:27 PM 50.3500 -100.5667 69° East 200 230 11,100  Level Winnipeg Center
Mon 05:14:27 PM 50.3500 -100.4833 90° East 200 230 11,100  Level Winnipeg Center
Mon 05:15:27 PM 50.3500 -100.3833 90° East 200 230 11,100  Level Winnipeg Center
Mon 05:16:27 PM 50.3333 -100.3000 107° East 200 230 11,100  Level Winnipeg Center
Mon 05:17:27 PM 50.3333 -100.2167 90° East 200 230 11,100  Level Winnipeg Center
Mon 05:18:27 PM 50.3167 -100.1167 105° East 200 230 11,100 -50 Level Winnipeg Center
Mon 05:19:27 PM 50.3167 -100.0333 90° East 200 230 11,000  Descending Winnipeg Center
Mon 05:20:27 PM 50.3333 -99.9500 73° East 200 230 11,100 50 Climbing Winnipeg Center
Mon 05:21:27 PM 50.3167 -99.8500 105° East 200 230 11,100  Level Winnipeg Center
Mon 05:22:27 PM 50.3167 -99.7667 90° East 200 230 11,100  Level Winnipeg Center
Mon 05:23:27 PM 50.3167 -99.6833 90° East 200 230 11,100  Level Winnipeg Center
Mon 05:24:27 PM 50.3167 -99.6167 90° East 200 230 11,100  Level Winnipeg Center
Mon 05:25:27 PM 50.3167 -99.5000 90° East 200 230 11,100  Level Winnipeg Center
Mon 05:26:27 PM 50.3000 -99.4333 111° Southeast 200 230 11,100  Level Winnipeg Center
Mon 05:27:27 PM 50.3000 -99.3500 90° East 200 230 11,100  Level Winnipeg Center
Mon 05:28:27 PM 50.3000 -99.2667 90° East 200 230 11,100  Level Winnipeg Center
Mon 05:29:27 PM 50.3000 -99.1667 90° East 200 230 11,100  Level Winnipeg Center
Mon 05:31:27 PM 50.3000 -99.0167 90° East 200 230 11,100  Level Winnipeg Center
Mon 05:32:27 PM 50.2833 -98.9000 103° East 200 230 11,100  Level Winnipeg Center
Mon 05:33:27 PM 50.2833 -98.8167 90° East 200 230 11,100  Level Winnipeg Center
Mon 05:34:27 PM 50.2833 -98.7500 90° East 200 230 11,100  Level Winnipeg Center
Mon 05:35:27 PM 50.2667 -98.6667 107° East 200 230 11,100  Level Winnipeg Center
Mon 05:36:27 PM 50.2667 -98.5833 90° East 200 230 11,100  Level Winnipeg Center
Mon 05:37:27 PM 50.2667 -98.4833 90° East 200 230 11,100  Level Winnipeg Center
Mon 05:38:27 PM 50.2667 -98.4000 90° East 200 230 11,100  Level Winnipeg Center
Mon 05:39:27 PM 50.2500 -98.3000 105° East 200 230 11,100 -250 Level Winnipeg Center
Mon 05:40:27 PM 50.2500 -98.2167 90° East 200 230 10,600 -450 Descending Winnipeg Center
Mon 05:41:27 PM 50.2667 -98.1167 75° East 210 242 10,200 -450 Descending Winnipeg Center
Mon 05:42:27 PM 50.2500 -98.0333 107° East 210 242 9,700 -550 Descending Winnipeg Center
Mon 05:43:27 PM 50.2500 -97.9667 90° East 210 242 9,100 -650 Descending Winnipeg Center
Mon 05:44:27 PM 50.2500 -97.8500 90° East 210 242 8,400 -650 Descending Winnipeg Center
Mon 05:45:27 PM 50.2333 -97.7500 105° East 210 242 7,800 -650 Descending Winnipeg Center
Mon 05:46:27 PM 50.2333 -97.6667 90° East 210 242 7,100 -700 Descending Winnipeg Center
Mon 05:47:27 PM 50.2333 -97.6000 90° East 200 230 6,400 -700 Descending Winnipeg Center
Mon 05:48:27 PM 50.2333 -97.4833 90° East 190 219 5,700 -600 Descending Winnipeg Center
Mon 05:49:27 PM 50.2333 -97.4167 90° East 190 219 5,200 -500 Descending Winnipeg Center
Mon 05:50:27 PM 50.2333 -97.3333 90° East 180 207 4,700 -500 Descending Winnipeg Center
Mon 05:51:27 PM 50.2167 -97.2500 107° East 180 207 4,200 -500 Descending Winnipeg Center
Mon 05:52:27 PM 50.2000 -97.2000 117° Southeast 170 196 3,700 -500 Descending Winnipeg Center
Mon 05:53:27 PM 50.1667 -97.1167 122° Southeast 160 184 3,200 -450 Descending Winnipeg Center
Mon 05:54:27 PM 50.1500 -97.0667 117° Southeast 160 184 2,800 -350 Descending Winnipeg Center
Mon 05:55:27 PM 50.1167 -97.0167 136° Southeast 140 161 2,500 -350 Descending Winnipeg Center
Mon 05:56:27 PM 50.0833 -97.0167 180° South 110 127 2,100 -400 Descending Winnipeg Center
Mon 05:57:27 PM 50.0667 -97.0167 180° South 100 115 1,700 -550 Descending Winnipeg Center
Mon 05:58:27 PM 50.0500 -97.0167 180° South 70 81 1,000 -700 Descending Winnipeg Center

Login

Don't have an account? Register now (free) for customized features, flight alerts, and more!